createdAt,value
2019-03-16T00:00:52.229Z,29.10
2019-03-16T00:01:28.334Z,29.12
2019-03-16T00:02:04.500Z,29.14
2019-03-16T00:02:43.750Z,29.15
2019-03-16T00:03:22.551Z,29.18
2019-03-16T00:03:58.669Z,29.20
2019-03-16T00:04:37.195Z,29.21
2019-03-16T00:05:13.599Z,29.22
2019-03-16T00:05:49.768Z,29.23
2019-03-16T00:06:25.878Z,29.24
2019-03-16T00:07:07.671Z,29.28
2019-03-16T00:07:44.236Z,29.31
2019-03-16T00:08:20.370Z,29.36
2019-03-16T00:08:57.398Z,29.41
2019-03-16T00:09:37.091Z,29.47
2019-03-16T00:10:13.178Z,29.54
2019-03-16T00:10:49.547Z,29.62
2019-03-16T00:11:28.488Z,29.68
2019-03-16T00:12:10.005Z,29.72
2019-03-16T00:12:46.090Z,29.75
2019-03-16T00:13:22.178Z,29.79
2019-03-16T00:14:00.142Z,29.79
2019-03-16T00:14:40.932Z,29.80
2019-03-16T00:15:20.740Z,29.82
2019-03-16T00:15:56.784Z,29.83
2019-03-16T00:16:38.477Z,29.84
2019-03-16T00:17:23.342Z,29.86
2019-03-16T00:17:54.627Z,29.88
2019-03-16T00:18:30.917Z,29.95
2019-03-16T00:19:08.135Z,29.95
2019-03-16T00:19:45.395Z,29.95
2019-03-16T00:20:25.953Z,30.02
2019-03-16T00:21:02.110Z,30.09
2019-03-16T00:21:38.181Z,30.09
2019-03-16T00:22:14.458Z,30.12
2019-03-16T00:22:51.893Z,30.16
2019-03-16T00:23:29.164Z,30.22
2019-03-16T00:24:08.310Z,30.22
2019-03-16T00:24:44.307Z,30.22
2019-03-16T00:25:20.327Z,30.29
2019-03-16T00:25:57.277Z,30.33
2019-03-16T00:26:33.443Z,30.33
2019-03-16T00:27:09.481Z,30.34
2019-03-16T00:27:46.498Z,30.41
2019-03-16T00:28:25.042Z,30.49
2019-03-16T00:29:02.322Z,30.49
2019-03-16T00:29:42.028Z,30.54
2019-03-16T00:30:18.094Z,30.57
2019-03-16T00:31:12.770Z,30.60
2019-03-16T00:31:48.754Z,30.60
2019-03-16T00:32:24.822Z,30.64
2019-03-16T00:33:04.911Z,30.60
2019-03-16T00:33:41.185Z,30.60
2019-03-16T00:34:17.393Z,30.58
2019-03-16T00:34:55.200Z,30.58
2019-03-16T00:35:32.635Z,30.51
2019-03-16T00:36:10.023Z,30.51
2019-03-16T00:36:47.552Z,30.51
2019-03-16T00:37:23.697Z,30.53
2019-03-16T00:38:02.457Z,30.53
2019-03-16T00:38:40.144Z,30.53
2019-03-16T00:39:17.976Z,30.48
2019-03-16T00:40:15.426Z,30.39
2019-03-16T00:40:51.659Z,30.39
2019-03-16T00:41:27.871Z,30.38
2019-03-16T00:42:03.977Z,30.42
2019-03-16T00:42:42.410Z,30.61
2019-03-16T00:43:21.755Z,30.61
2019-03-16T00:44:00.269Z,30.83
2019-03-16T00:44:37.352Z,30.83
2019-03-16T00:45:13.566Z,30.83
2019-03-16T00:45:52.910Z,30.94
2019-03-16T00:46:31.344Z,30.94
2019-03-16T00:47:07.465Z,31.04
2019-03-16T00:47:44.518Z,31.13
2019-03-16T00:48:22.177Z,31.13
2019-03-16T00:49:00.470Z,31.27
2019-03-16T00:49:49.255Z,31.27
2019-03-16T00:50:28.170Z,31.43
2019-03-16T00:51:04.328Z,31.43
2019-03-16T00:51:40.519Z,31.52
2019-03-16T00:52:17.890Z,31.59
2019-03-16T00:52:53.905Z,31.65
2019-03-16T00:53:30.077Z,31.71
2019-03-16T00:54:07.311Z,31.78
2019-03-16T00:54:46.836Z,31.84
2019-03-16T00:55:22.780Z,31.86
2019-03-16T00:56:02.607Z,31.98
2019-03-16T00:56:38.735Z,32.04
2019-03-16T00:57:15.937Z,32.12
2019-03-16T00:57:53.570Z,32.19
2019-03-16T00:58:29.838Z,32.24
2019-03-16T00:59:06.001Z,32.32
2019-03-16T00:59:43.603Z,32.35
2019-03-16T01:00:20.791Z,32.39
2019-03-16T01:00:56.835Z,32.40
2019-03-16T01:01:33.084Z,32.39
2019-03-16T01:02:09.221Z,32.43
2019-03-16T01:02:46.255Z,32.47
2019-03-16T01:03:22.371Z,32.51
2019-03-16T01:03:58.451Z,32.53
2019-03-16T01:04:34.496Z,32.54
2019-03-16T01:05:10.721Z,32.56
2019-03-16T01:05:46.795Z,32.59
2019-03-16T01:06:23.027Z,32.63
2019-03-16T01:07:01.626Z,32.66
2019-03-16T01:07:37.756Z,32.69
2019-03-16T01:08:14.116Z,32.73
2019-03-16T01:08:51.761Z,32.76
2019-03-16T01:09:32.997Z,32.78
2019-03-16T01:10:11.670Z,32.76
2019-03-16T01:10:48.290Z,32.74
2019-03-16T01:11:24.479Z,32.72
2019-03-16T01:12:00.582Z,32.74
2019-03-16T01:12:37.770Z,32.75
2019-03-16T01:13:14.981Z,32.78
2019-03-16T01:13:51.179Z,32.80
2019-03-16T01:14:30.345Z,32.83
2019-03-16T01:15:07.915Z,32.86
2019-03-16T01:15:44.029Z,32.82
2019-03-16T01:16:20.159Z,32.86
2019-03-16T01:16:57.234Z,32.88
2019-03-16T01:17:35.401Z,32.88
2019-03-16T01:18:11.758Z,32.90
2019-03-16T01:18:48.313Z,32.90
2019-03-16T01:19:33.018Z,32.92
2019-03-16T01:20:09.212Z,32.92
2019-03-16T01:20:46.579Z,32.90
2019-03-16T01:21:23.788Z,32.92
2019-03-16T01:22:01.207Z,32.89
2019-03-16T01:22:44.759Z,32.86
2019-03-16T01:23:24.114Z,32.88
2019-03-16T01:24:00.229Z,32.90
2019-03-16T01:24:37.304Z,32.93
2019-03-16T01:25:13.874Z,32.96
2019-03-16T01:25:51.752Z,33.02
2019-03-16T01:26:31.665Z,33.05
2019-03-16T01:27:07.939Z,33.09
2019-03-16T01:27:45.560Z,33.11
2019-03-16T01:28:22.926Z,33.14
2019-03-16T01:29:05.428Z,33.15
2019-03-16T01:30:04.605Z,33.15
2019-03-16T01:30:40.528Z,33.16
2019-03-16T01:31:16.595Z,33.17
2019-03-16T01:31:56.035Z,33.23
2019-03-16T01:32:40.650Z,33.27
2019-03-16T01:33:34.589Z,33.30
2019-03-16T01:34:12.225Z,33.32
2019-03-16T01:34:48.352Z,33.37
2019-03-16T01:35:44.418Z,33.42
2019-03-16T01:36:36.114Z,33.48
2019-03-16T01:37:13.515Z,33.58
2019-03-16T01:37:49.689Z,33.67
2019-03-16T01:38:25.856Z,33.73
2019-03-16T01:39:02.032Z,33.78
2019-03-16T01:39:44.777Z,33.85
2019-03-16T01:40:22.483Z,33.89
2019-03-16T01:40:58.637Z,33.94
2019-03-16T01:41:37.519Z,33.99
2019-03-16T01:42:14.590Z,34.04
2019-03-16T01:42:52.228Z,34.07
2019-03-16T01:43:32.316Z,34.09
2019-03-16T01:44:09.441Z,34.14
2019-03-16T01:44:47.606Z,34.19
2019-03-16T01:45:23.687Z,34.25
2019-03-16T01:45:59.957Z,34.32
2019-03-16T01:46:36.158Z,34.36
2019-03-16T01:47:12.351Z,34.43
2019-03-16T01:47:49.230Z,34.49
2019-03-16T01:48:30.202Z,34.53
2019-03-16T01:49:06.451Z,34.58
2019-03-16T01:49:42.650Z,34.65
2019-03-16T01:50:21.828Z,34.71
2019-03-16T01:50:59.573Z,34.79
2019-03-16T01:51:35.655Z,34.85
2019-03-16T01:52:11.813Z,34.88
2019-03-16T01:52:47.993Z,34.91
2019-03-16T01:53:23.947Z,34.86
2019-03-16T01:54:01.249Z,34.88
2019-03-16T01:54:39.697Z,34.91
2019-03-16T01:55:18.106Z,34.93
2019-03-16T01:55:54.263Z,34.99
2019-03-16T01:56:30.500Z,35.05
2019-03-16T01:57:25.477Z,35.09
2019-03-16T01:58:03.703Z,35.12
2019-03-16T01:58:43.435Z,35.13
2019-03-16T01:59:38.056Z,35.17
2019-03-16T02:00:22.819Z,35.20
2019-03-16T02:01:05.886Z,35.22
2019-03-16T02:02:03.242Z,35.22
2019-03-16T02:03:43.005Z,35.29
2019-03-16T02:04:21.795Z,35.35
2019-03-16T02:04:59.037Z,35.39
2019-03-16T02:05:36.962Z,35.39
2019-03-16T02:06:15.089Z,35.44
2019-03-16T02:06:52.195Z,35.45
2019-03-16T02:07:40.553Z,35.49
2019-03-16T02:08:16.944Z,35.46
2019-03-16T02:08:54.075Z,35.43
2019-03-16T02:09:30.841Z,35.43
2019-03-16T02:10:07.464Z,35.47
2019-03-16T02:10:47.041Z,35.50
2019-03-16T02:11:24.336Z,35.51
2019-03-16T02:12:00.691Z,35.55
2019-03-16T02:12:40.478Z,35.60
2019-03-16T02:13:19.563Z,35.63
2019-03-16T02:13:58.909Z,35.65
2019-03-16T02:14:35.059Z,35.72
2019-03-16T02:15:13.647Z,35.75
2019-03-16T02:15:54.796Z,35.79
2019-03-16T02:16:32.684Z,35.84
2019-03-16T02:17:08.791Z,35.86
2019-03-16T02:17:44.893Z,35.90
2019-03-16T02:18:21.003Z,35.92
2019-03-16T02:19:00.008Z,35.94
2019-03-16T02:19:49.240Z,36.00
2019-03-16T02:20:26.538Z,36.06
2019-03-16T02:21:02.745Z,36.12
2019-03-16T02:21:40.467Z,36.13
2019-03-16T02:22:17.142Z,36.16
2019-03-16T02:22:53.346Z,36.20
2019-03-16T02:23:37.803Z,36.26
2019-03-16T02:24:15.609Z,36.32
2019-03-16T02:24:56.236Z,36.39
2019-03-16T02:25:32.579Z,36.43
2019-03-16T02:26:08.757Z,36.45
2019-03-16T02:26:44.721Z,36.50
2019-03-16T02:27:24.878Z,36.54
2019-03-16T02:28:01.234Z,36.57
2019-03-16T02:28:46.876Z,36.61
2019-03-16T02:29:25.502Z,36.57
2019-03-16T02:30:01.445Z,36.59
2019-03-16T02:30:37.693Z,36.58
2019-03-16T02:31:13.695Z,36.57
2019-03-16T02:31:54.605Z,36.57
2019-03-16T02:32:30.896Z,36.58
2019-03-16T02:33:13.311Z,36.59
2019-03-16T02:34:07.620Z,36.64
2019-03-16T02:34:46.071Z,36.61
2019-03-16T02:35:24.979Z,36.59
2019-03-16T02:36:03.651Z,36.60
2019-03-16T02:36:50.083Z,36.61
2019-03-16T02:37:27.384Z,36.62
2019-03-16T02:38:03.509Z,36.69
2019-03-16T02:38:52.094Z,36.70
2019-03-16T02:39:32.207Z,36.71
2019-03-16T02:40:15.243Z,36.74
2019-03-16T02:40:52.595Z,36.78
2019-03-16T02:41:30.509Z,36.80
2019-03-16T02:42:10.154Z,36.80
2019-03-16T02:42:46.466Z,36.81
2019-03-16T02:43:22.601Z,36.83
2019-03-16T02:43:58.714Z,36.83
2019-03-16T02:44:41.439Z,36.83
2019-03-16T02:45:17.565Z,36.84
2019-03-16T02:45:53.677Z,36.74
2019-03-16T02:46:33.689Z,36.75
2019-03-16T02:47:09.788Z,36.69
2019-03-16T02:47:52.368Z,36.72
2019-03-16T02:48:28.805Z,36.72
2019-03-16T02:49:06.398Z,36.77
2019-03-16T02:49:42.483Z,36.76
2019-03-16T02:50:20.080Z,36.75
2019-03-16T02:50:58.454Z,36.78
2019-03-16T02:51:34.758Z,36.80
2019-03-16T02:52:13.711Z,36.82
2019-03-16T02:52:50.337Z,36.85
2019-03-16T02:53:29.463Z,36.86
2019-03-16T02:54:05.474Z,36.86
2019-03-16T02:54:45.605Z,36.88
2019-03-16T02:55:23.031Z,36.91
2019-03-16T02:56:00.460Z,36.92
2019-03-16T02:56:36.586Z,36.91
2019-03-16T02:57:20.037Z,36.92
2019-03-16T02:58:02.694Z,36.93
2019-03-16T02:58:40.815Z,36.93
2019-03-16T02:59:22.624Z,36.98
2019-03-16T02:59:58.793Z,36.98
2019-03-16T03:00:36.667Z,36.99
2019-03-16T03:01:14.896Z,37.01
2019-03-16T03:01:59.335Z,37.03
2019-03-16T03:02:35.337Z,37.07
2019-03-16T03:03:29.467Z,37.08
2019-03-16T03:04:01.769Z,37.07
2019-03-16T03:04:38.029Z,37.11
2019-03-16T03:05:16.144Z,37.11
2019-03-16T03:05:54.987Z,37.18
2019-03-16T03:06:38.980Z,37.22
2019-03-16T03:07:19.658Z,37.28
2019-03-16T03:08:00.097Z,37.28
2019-03-16T03:08:38.313Z,37.33
2019-03-16T03:09:16.547Z,37.37
2019-03-16T03:10:03.512Z,37.37
2019-03-16T03:11:07.727Z,37.39
2019-03-16T03:11:50.316Z,37.41
2019-03-16T03:12:30.556Z,37.37
2019-03-16T03:13:06.777Z,37.32
2019-03-16T03:13:44.394Z,37.31
2019-03-16T03:14:26.696Z,37.31
2019-03-16T03:15:04.090Z,37.27
2019-03-16T03:15:43.976Z,37.27
2019-03-16T03:16:21.293Z,37.28
2019-03-16T03:16:59.199Z,37.30
2019-03-16T03:17:36.610Z,37.34
2019-03-16T03:18:12.782Z,37.36
2019-03-16T03:18:51.713Z,37.37
2019-03-16T03:19:27.831Z,37.35
2019-03-16T03:20:06.610Z,37.38
2019-03-16T03:20:44.120Z,37.42
2019-03-16T03:21:24.192Z,37.40
2019-03-16T03:22:01.609Z,37.44
2019-03-16T03:22:40.623Z,37.47
2019-03-16T03:23:29.347Z,37.54
2019-03-16T03:24:05.675Z,37.58
2019-03-16T03:24:44.668Z,37.60
2019-03-16T03:25:28.370Z,37.62
2019-03-16T03:26:07.597Z,37.63
2019-03-16T03:26:43.794Z,37.64
2019-03-16T03:27:20.726Z,37.66
2019-03-16T03:27:59.952Z,37.71
2019-03-16T03:28:39.779Z,37.68
2019-03-16T03:29:18.528Z,37.72
2019-03-16T03:30:02.325Z,37.74
2019-03-16T03:30:41.491Z,37.79
2019-03-16T03:31:20.345Z,37.80
2019-03-16T03:31:58.438Z,37.80
2019-03-16T03:32:35.013Z,37.77
2019-03-16T03:33:15.933Z,37.84
2019-03-16T03:34:00.767Z,37.87
2019-03-16T03:34:34.635Z,37.87
2019-03-16T03:35:13.521Z,37.90
2019-03-16T03:36:04.274Z,37.93
2019-03-16T03:36:48.551Z,37.95
2019-03-16T03:37:50.577Z,38.01
2019-03-16T03:38:32.613Z,38.02
2019-03-16T03:39:36.866Z,38.06
2019-03-16T03:40:13.109Z,38.08
2019-03-16T03:40:49.365Z,38.11
2019-03-16T03:41:27.190Z,38.13
2019-03-16T03:42:05.068Z,38.13
2019-03-16T03:42:46.159Z,38.16
2019-03-16T03:43:34.618Z,38.20
2019-03-16T03:44:11.582Z,38.22
2019-03-16T03:44:52.038Z,38.19
2019-03-16T03:45:28.368Z,38.21
2019-03-16T03:46:05.675Z,38.22
2019-03-16T03:46:45.233Z,38.24
2019-03-16T03:47:22.997Z,38.24
2019-03-16T03:47:59.393Z,38.22
2019-03-16T03:48:36.494Z,38.22
2019-03-16T03:49:14.178Z,38.25
2019-03-16T03:49:50.334Z,38.22
2019-03-16T03:50:26.413Z,38.13
2019-03-16T03:51:20.988Z,38.14
2019-03-16T03:51:57.584Z,38.14
2019-03-16T03:52:35.034Z,38.21
2019-03-16T03:53:15.041Z,38.23
2019-03-16T03:53:51.142Z,38.23
2019-03-16T03:54:32.517Z,38.23
2019-03-16T03:55:10.492Z,38.21
2019-03-16T03:55:49.514Z,38.21
2019-03-16T03:56:33.372Z,38.23
2019-03-16T03:57:14.970Z,38.22
2019-03-16T03:57:54.921Z,38.14
2019-03-16T03:59:13.547Z,38.15
2019-03-16T03:59:56.565Z,38.16
2019-03-16T04:00:32.527Z,38.16
2019-03-16T04:01:25.156Z,38.19
2019-03-16T04:02:01.162Z,38.21
2019-03-16T04:02:37.342Z,38.22
2019-03-16T04:03:18.218Z,38.25
2019-03-16T04:03:54.531Z,38.23
2019-03-16T04:04:30.868Z,38.22
2019-03-16T04:05:07.227Z,38.24
2019-03-16T04:05:44.497Z,38.25
2019-03-16T04:06:20.583Z,38.25
2019-03-16T04:06:56.896Z,38.26
2019-03-16T04:07:32.970Z,38.28
2019-03-16T04:08:10.412Z,38.26
2019-03-16T04:08:48.741Z,38.28
2019-03-16T04:09:24.873Z,38.27
2019-03-16T04:10:01.033Z,38.28
2019-03-16T04:10:37.116Z,38.29
2019-03-16T04:11:31.611Z,38.31
2019-03-16T04:12:09.069Z,38.29
2019-03-16T04:13:07.786Z,38.31
2019-03-16T04:13:43.947Z,38.34
2019-03-16T04:14:24.272Z,38.35
2019-03-16T04:15:18.925Z,38.41
2019-03-16T04:15:55.147Z,38.44
2019-03-16T04:16:32.013Z,38.41
2019-03-16T04:17:09.171Z,38.40
2019-03-16T04:17:45.267Z,38.41
2019-03-16T04:18:21.562Z,38.33
2019-03-16T04:19:07.009Z,38.29
2019-03-16T04:20:31.367Z,38.26
2019-03-16T04:21:13.089Z,38.25
2019-03-16T04:21:51.461Z,38.21
2019-03-16T04:22:28.762Z,38.20
2019-03-16T04:23:05.860Z,38.19
2019-03-16T04:23:52.347Z,38.16
2019-03-16T04:24:30.781Z,38.14
2019-03-16T04:25:07.353Z,38.19
2019-03-16T04:25:45.367Z,38.22
2019-03-16T04:26:23.898Z,38.23
2019-03-16T04:27:14.987Z,38.29
2019-03-16T04:27:38.963Z,38.34
2019-03-16T04:28:25.501Z,38.38
2019-03-16T04:29:02.595Z,38.43
2019-03-16T04:29:39.352Z,38.45
2019-03-16T04:30:17.765Z,38.48
2019-03-16T04:30:54.591Z,38.51
2019-03-16T04:31:31.592Z,38.50
2019-03-16T04:32:07.755Z,38.51
2019-03-16T04:32:45.424Z,38.49
2019-03-16T04:33:24.252Z,38.44
2019-03-16T04:34:00.323Z,38.44
2019-03-16T04:35:00.508Z,38.44
2019-03-16T04:35:37.926Z,38.47
2019-03-16T04:36:15.038Z,38.54
2019-03-16T04:36:52.369Z,38.58
2019-03-16T04:37:28.468Z,38.65
2019-03-16T04:38:04.493Z,38.60
2019-03-16T04:38:40.558Z,38.58
2019-03-16T04:39:17.603Z,38.61
2019-03-16T04:39:53.623Z,38.63
2019-03-16T04:40:31.175Z,38.65
2019-03-16T04:41:07.392Z,38.67
2019-03-16T04:41:43.526Z,38.60
2019-03-16T04:42:22.562Z,38.57
2019-03-16T04:42:58.732Z,38.47
2019-03-16T04:43:39.544Z,38.43
2019-03-16T04:44:24.147Z,38.37
2019-03-16T04:45:00.508Z,38.34
2019-03-16T04:45:41.181Z,38.34
2019-03-16T04:46:23.308Z,38.33
2019-03-16T04:47:47.020Z,38.37
2019-03-16T04:48:24.655Z,38.40
2019-03-16T04:49:00.776Z,38.44
2019-03-16T04:49:36.987Z,38.41
2019-03-16T04:50:13.128Z,38.41
2019-03-16T04:50:49.452Z,38.42
2019-03-16T04:51:26.534Z,38.42
2019-03-16T04:52:02.576Z,38.44
2019-03-16T04:52:39.973Z,38.49
2019-03-16T04:53:16.052Z,38.54
2019-03-16T04:53:53.952Z,38.52
2019-03-16T04:54:30.316Z,38.50
2019-03-16T04:55:12.411Z,38.52
2019-03-16T04:55:52.923Z,38.44
2019-03-16T04:56:32.599Z,38.44
2019-03-16T04:57:08.896Z,38.41
2019-03-16T04:57:48.007Z,38.44
2019-03-16T04:58:33.337Z,38.43
2019-03-16T04:59:11.204Z,38.46
2019-03-16T04:59:48.488Z,38.40
2019-03-16T05:00:31.475Z,38.40
2019-03-16T05:01:11.942Z,38.43
2019-03-16T05:01:52.282Z,38.38
2019-03-16T05:02:29.709Z,38.36
2019-03-16T05:03:08.514Z,38.39
2019-03-16T05:03:45.026Z,38.41
2019-03-16T05:04:26.623Z,38.44
2019-03-16T05:05:23.337Z,38.47
2019-03-16T05:06:06.879Z,38.53
2019-03-16T05:06:49.344Z,38.61
2019-03-16T05:07:25.481Z,38.65
2019-03-16T05:08:04.312Z,38.69
2019-03-16T05:08:40.692Z,38.69
2019-03-16T05:09:16.743Z,38.69
2019-03-16T05:09:57.999Z,38.74
2019-03-16T05:10:34.172Z,38.74
2019-03-16T05:11:12.681Z,38.75
2019-03-16T05:11:50.301Z,38.78
2019-03-16T05:12:27.676Z,38.73
2019-03-16T05:13:14.616Z,38.73
2019-03-16T05:13:51.717Z,38.69
2019-03-16T05:14:32.354Z,38.67
2019-03-16T05:15:11.025Z,38.68
2019-03-16T05:15:53.324Z,38.63
2019-03-16T05:16:30.692Z,38.63
2019-03-16T05:17:19.349Z,38.63
2019-03-16T05:17:56.529Z,38.53
2019-03-16T05:18:36.843Z,38.52
2019-03-16T05:19:14.444Z,38.54
2019-03-16T05:19:55.585Z,38.57
2019-03-16T05:20:31.826Z,38.57
2019-03-16T05:21:09.718Z,38.51
2019-03-16T05:21:47.483Z,38.55
2019-03-16T05:22:42.478Z,38.57
2019-03-16T05:23:19.750Z,38.60
2019-03-16T05:23:57.205Z,38.63
2019-03-16T05:24:37.905Z,38.63
2019-03-16T05:25:23.969Z,38.67
2019-03-16T05:26:04.021Z,38.67
2019-03-16T05:26:41.495Z,38.58
2019-03-16T05:27:18.157Z,38.50
2019-03-16T05:27:54.903Z,38.49
2019-03-16T05:28:32.187Z,38.43
2019-03-16T05:29:11.774Z,38.37
2019-03-16T05:29:48.904Z,38.30
2019-03-16T05:30:42.477Z,38.34
2019-03-16T05:31:24.226Z,38.33
2019-03-16T05:32:01.213Z,38.43
2019-03-16T05:32:38.941Z,38.47
2019-03-16T05:33:15.778Z,38.49
2019-03-16T05:33:54.247Z,38.55
2019-03-16T05:34:31.066Z,38.52
2019-03-16T05:35:08.681Z,38.53
2019-03-16T05:35:50.489Z,38.60
2019-03-16T05:36:26.845Z,38.65
2019-03-16T05:37:02.967Z,38.65
2019-03-16T05:37:39.059Z,38.68
2019-03-16T05:38:18.353Z,38.71
2019-03-16T05:38:55.620Z,38.68
2019-03-16T05:39:33.148Z,38.71
2019-03-16T05:40:09.740Z,38.73
2019-03-16T05:40:48.847Z,38.70
2019-03-16T05:41:28.697Z,38.74
2019-03-16T05:42:05.574Z,38.72
2019-03-16T05:42:42.796Z,38.70
2019-03-16T05:43:30.345Z,38.73
2019-03-16T05:44:08.322Z,38.72
2019-03-16T05:44:45.921Z,38.70
2019-03-16T05:45:25.138Z,38.73
2019-03-16T05:46:05.900Z,38.76
2019-03-16T05:46:43.312Z,38.79
2019-03-16T05:47:19.413Z,38.80
2019-03-16T05:47:58.043Z,38.82
2019-03-16T05:48:34.837Z,38.80
2019-03-16T05:49:11.234Z,38.77
2019-03-16T05:49:47.346Z,38.78
2019-03-16T05:50:23.424Z,38.76
2019-03-16T05:50:59.677Z,38.72
2019-03-16T05:51:35.910Z,38.67
2019-03-16T05:52:11.987Z,38.70
2019-03-16T05:52:49.378Z,38.73
2019-03-16T05:53:27.860Z,38.71
2019-03-16T05:54:05.845Z,38.76
2019-03-16T05:54:42.650Z,38.75
2019-03-16T05:55:21.520Z,38.75
2019-03-16T05:55:58.660Z,38.76
2019-03-16T05:56:35.616Z,38.81
2019-03-16T05:57:35.014Z,38.83
2019-03-16T05:58:11.024Z,38.86
2019-03-16T05:58:48.101Z,38.91
2019-03-16T05:59:24.152Z,38.94
2019-03-16T06:00:00.200Z,38.98
2019-03-16T06:00:40.320Z,38.95
2019-03-16T06:01:16.304Z,38.83
2019-03-16T06:01:52.376Z,38.89
2019-03-16T06:02:29.168Z,38.86
2019-03-16T06:03:06.073Z,38.87
2019-03-16T06:03:42.136Z,38.88
2019-03-16T06:04:18.887Z,38.87
2019-03-16T06:04:54.880Z,38.92
2019-03-16T06:05:31.769Z,38.97
2019-03-16T06:06:07.937Z,39.00
2019-03-16T06:06:44.026Z,39.03
2019-03-16T06:07:22.804Z,39.06
2019-03-16T06:07:58.780Z,39.06
2019-03-16T06:08:44.688Z,39.10
2019-03-16T06:09:21.826Z,39.13
2019-03-16T06:10:02.248Z,39.11
2019-03-16T06:10:38.339Z,39.15
2019-03-16T06:11:15.110Z,39.15
2019-03-16T06:11:52.465Z,39.15
2019-03-16T06:12:28.692Z,39.11
2019-03-16T06:13:07.810Z,39.11
2019-03-16T06:13:45.276Z,39.10
2019-03-16T06:14:21.587Z,39.05
2019-03-16T06:14:57.823Z,39.04
2019-03-16T06:15:34.083Z,39.07
2019-03-16T06:16:10.256Z,39.09
2019-03-16T06:16:46.363Z,39.12
2019-03-16T06:17:22.587Z,39.06
2019-03-16T06:18:00.031Z,39.07
2019-03-16T06:18:38.126Z,39.08
2019-03-16T06:19:14.313Z,39.06
2019-03-16T06:19:53.226Z,39.08
2019-03-16T06:20:29.567Z,39.09
2019-03-16T06:21:08.979Z,39.07
2019-03-16T06:21:45.363Z,39.05
2019-03-16T06:22:22.636Z,39.00
2019-03-16T06:22:58.851Z,38.96
2019-03-16T06:23:36.048Z,38.90
2019-03-16T06:24:13.321Z,38.79
2019-03-16T06:24:50.881Z,38.75
2019-03-16T06:25:26.968Z,38.74
2019-03-16T06:26:04.200Z,38.66
2019-03-16T06:26:41.492Z,38.58
2019-03-16T06:27:19.365Z,38.61
2019-03-16T06:27:56.888Z,38.60
2019-03-16T06:28:32.995Z,38.56
2019-03-16T06:29:09.079Z,38.60
2019-03-16T06:29:47.820Z,38.66
2019-03-16T06:30:24.899Z,38.66
2019-03-16T06:31:03.577Z,38.66
2019-03-16T06:31:41.983Z,38.58
2019-03-16T06:32:17.918Z,38.51
2019-03-16T06:32:57.189Z,38.53
2019-03-16T06:33:33.380Z,38.56
2019-03-16T06:34:12.182Z,38.49
2019-03-16T06:34:52.272Z,38.53
2019-03-16T06:35:31.935Z,38.58
2019-03-16T06:36:08.156Z,38.57
2019-03-16T06:36:44.101Z,38.59
2019-03-16T06:37:20.500Z,38.59
2019-03-16T06:38:03.333Z,38.63
2019-03-16T06:38:41.302Z,38.67
2019-03-16T06:39:18.574Z,38.69
2019-03-16T06:39:56.246Z,38.75
2019-03-16T06:40:34.339Z,38.80
2019-03-16T06:41:29.406Z,38.84
2019-03-16T06:42:35.606Z,38.89
2019-03-16T06:43:15.010Z,38.99
2019-03-16T06:44:03.445Z,39.05
2019-03-16T06:44:41.850Z,39.06
2019-03-16T06:45:22.879Z,39.10
2019-03-16T06:46:01.602Z,39.14
2019-03-16T06:46:56.536Z,39.15
2019-03-16T06:47:54.471Z,39.16
2019-03-16T06:48:28.976Z,39.17
2019-03-16T06:49:11.440Z,39.08
2019-03-16T06:49:53.916Z,39.00
2019-03-16T06:50:31.913Z,39.00
2019-03-16T06:51:10.903Z,38.96
2019-03-16T06:51:48.334Z,38.93
2019-03-16T06:52:30.957Z,38.99
2019-03-16T06:53:08.185Z,39.02
2019-03-16T06:53:46.513Z,39.05
2019-03-16T06:54:25.510Z,39.08
2019-03-16T06:55:01.670Z,39.11
2019-03-16T06:56:01.095Z,39.14
2019-03-16T06:56:37.295Z,39.15
2019-03-16T06:57:14.786Z,38.96
2019-03-16T06:57:50.902Z,38.91
2019-03-16T06:58:28.125Z,38.87
2019-03-16T06:59:07.669Z,38.65
2019-03-16T06:59:45.803Z,38.54
2019-03-16T07:00:23.374Z,38.43
2019-03-16T07:00:59.539Z,38.35
2019-03-16T07:01:35.706Z,38.40
2019-03-16T07:02:11.772Z,38.30
2019-03-16T07:03:12.443Z,38.26
2019-03-16T07:03:56.830Z,38.35
2019-03-16T07:04:32.840Z,38.45
2019-03-16T07:05:10.126Z,38.49
2019-03-16T07:05:50.266Z,38.44
2019-03-16T07:06:31.075Z,38.36
2019-03-16T07:07:08.003Z,38.33
2019-03-16T07:07:44.178Z,38.28
2019-03-16T07:08:21.463Z,38.22
2019-03-16T07:08:57.738Z,38.14
2019-03-16T07:09:37.299Z,38.05
2019-03-16T07:10:14.770Z,38.00
2019-03-16T07:10:53.365Z,38.06
2019-03-16T07:11:35.461Z,38.10
2019-03-16T07:12:11.681Z,38.21
2019-03-16T07:12:48.457Z,38.25
2019-03-16T07:13:26.176Z,38.29
2019-03-16T07:14:13.195Z,38.35
2019-03-16T07:14:55.220Z,38.31
2019-03-16T07:15:34.326Z,38.23
2019-03-16T07:16:16.342Z,38.24
2019-03-16T07:17:01.884Z,38.17
2019-03-16T07:17:32.631Z,38.09
2019-03-16T07:18:12.560Z,38.00
2019-03-16T07:18:58.754Z,37.93
2019-03-16T07:19:34.046Z,37.99
2019-03-16T07:20:11.609Z,38.06
2019-03-16T07:21:03.193Z,38.03
2019-03-16T07:21:42.851Z,38.13
2019-03-16T07:22:44.637Z,38.24
2019-03-16T07:23:23.149Z,38.35
2019-03-16T07:24:05.101Z,38.43
2019-03-16T07:24:46.413Z,38.45
2019-03-16T07:25:23.220Z,38.45
2019-03-16T07:26:14.068Z,38.52
2019-03-16T07:26:47.185Z,38.57
2019-03-16T07:27:26.690Z,38.61
2019-03-16T07:28:05.072Z,38.61
2019-03-16T07:28:41.262Z,38.61
2019-03-16T07:29:17.597Z,38.63
2019-03-16T07:29:56.822Z,38.64
2019-03-16T07:30:37.041Z,38.64
2019-03-16T07:31:12.013Z,38.63
2019-03-16T07:31:50.272Z,38.66
2019-03-16T07:32:27.577Z,38.70
2019-03-16T07:33:05.136Z,38.70
2019-03-16T07:33:41.456Z,38.74
2019-03-16T07:34:48.280Z,38.77
2019-03-16T07:35:26.442Z,38.77
2019-03-16T07:36:03.956Z,38.79
2019-03-16T07:36:41.303Z,38.77
2019-03-16T07:37:18.051Z,38.80
2019-03-16T07:37:56.958Z,38.85
2019-03-16T07:38:40.323Z,38.85
2019-03-16T07:39:19.443Z,38.85
2019-03-16T07:39:59.595Z,38.86
2019-03-16T07:40:39.501Z,38.87
2019-03-16T07:41:17.725Z,38.87
2019-03-16T07:41:54.703Z,38.82
2019-03-16T07:42:30.867Z,38.76
2019-03-16T07:43:15.778Z,38.70
2019-03-16T07:43:51.874Z,38.61
2019-03-16T07:44:35.427Z,38.63
2019-03-16T07:45:11.848Z,38.55
2019-03-16T07:45:50.740Z,38.46
2019-03-16T07:46:31.521Z,38.37
2019-03-16T07:47:07.585Z,38.28
2019-03-16T07:47:43.637Z,38.17
2019-03-16T07:48:26.349Z,38.09
2019-03-16T07:49:02.662Z,38.10
2019-03-16T07:49:40.381Z,38.16
2019-03-16T07:50:22.814Z,38.08
2019-03-16T07:50:59.428Z,38.06
2019-03-16T07:51:35.491Z,38.01
2019-03-16T07:52:13.754Z,38.07
2019-03-16T07:52:49.955Z,38.10
2019-03-16T07:53:28.288Z,38.11
2019-03-16T07:54:05.101Z,38.08
2019-03-16T07:54:41.205Z,37.98
2019-03-16T07:55:19.574Z,37.90
2019-03-16T07:55:55.793Z,37.85
2019-03-16T07:56:32.992Z,37.76
2019-03-16T07:57:09.271Z,37.72
2019-03-16T07:57:47.077Z,37.66
2019-03-16T07:58:30.163Z,37.58
2019-03-16T07:59:09.177Z,37.53
2019-03-16T07:59:46.375Z,37.46
2019-03-16T08:00:26.757Z,37.39
2019-03-16T08:01:05.501Z,37.34
2019-03-16T08:01:42.522Z,37.25
2019-03-16T08:02:18.470Z,37.22
2019-03-16T08:02:55.622Z,37.15
2019-03-16T08:03:33.028Z,37.08
2019-03-16T08:04:10.888Z,37.03
2019-03-16T08:04:47.319Z,37.12
2019-03-16T08:05:23.824Z,37.10
2019-03-16T08:06:02.682Z,37.00
2019-03-16T08:06:38.980Z,36.93
2019-03-16T08:07:15.483Z,36.91
2019-03-16T08:07:52.343Z,36.85
2019-03-16T08:08:28.404Z,36.83
2019-03-16T08:09:07.527Z,36.77
2019-03-16T08:09:44.817Z,36.74
2019-03-16T08:10:21.516Z,36.68
2019-03-16T08:10:58.038Z,36.66
2019-03-16T08:11:34.150Z,36.61
2019-03-16T08:12:10.752Z,36.60
2019-03-16T08:12:46.839Z,36.63
2019-03-16T08:13:23.138Z,36.74
2019-03-16T08:13:59.652Z,36.85
2019-03-16T08:14:35.764Z,36.91
2019-03-16T08:15:12.157Z,36.93
2019-03-16T08:15:51.679Z,36.95
2019-03-16T08:16:27.775Z,37.03
2019-03-16T08:17:05.094Z,37.08
2019-03-16T08:17:41.424Z,37.13
2019-03-16T08:18:17.534Z,37.11
2019-03-16T08:18:53.727Z,37.14
2019-03-16T08:19:29.754Z,37.18
2019-03-16T08:20:05.965Z,37.18
2019-03-16T08:20:42.038Z,37.17
2019-03-16T08:21:18.109Z,37.09
2019-03-16T08:21:56.779Z,37.00
2019-03-16T08:22:32.861Z,36.95
2019-03-16T08:23:08.952Z,36.86
2019-03-16T08:23:45.182Z,36.72
2019-03-16T08:24:21.232Z,36.68
2019-03-16T08:24:57.458Z,36.62
2019-03-16T08:25:33.526Z,36.62